Terminal Aerodrome Forecast
Issued by NWS

Current Version | Previous Version | Text Only | Print | Product List | Glossary Off
Versions: 1 2 3 4 5 6 7 8 9 10 11 12 13 14 15 16 17 18 19 20 21 22 23 24 25 26 27

000
FTUS41 KILN 052059 AAB
TAFLUK
TAF AMD
KLUK 052059Z 0521/0618 28005KT P6SM VCSH SCT025 OVC040
      TEMPO 0521/0522 6SM -SHRA BR OVC025
     FM060100 34005KT P6SM SCT040
     FM061400 34012KT P6SM SCT050=

USA.gov is the U.S. government's official web portal to all federal, state and local government web resources and services.